Ashton, ID

9:17 PM MDT on May 22, 2015 (GMT -0600)
Ashton Community Pharmacy-23 S 8th St | | Change Station
CLOSE
Current Station
Personal Weather Station
Location: Ashton, ID
Elevation: 5260 ft
Nearby Weather Stations

Elev 5260 ft 44.07 °N, 111.45 °W | Updated 1 minute ago

Thunderstorm
Thunderstorm
53.3 °F
Feels Like 53.3 °F
N
1.0
Wind Variable Wind from NE
Gusts 14.0 mph

Today
High -- | Low -- °F
--% Chance of Precip.
Yesterday
High -- | Low -- °F
Precip. -- in
5:52 AM 8:52 PM
Waxing Crescent, 26% visible
Pressure 29.98 in
Visibility 3.0 miles
Clouds Few 1900 ft
Mostly Cloudy 2800 ft
Overcast 3900 ft
Dew Point 46 °F
Humidity 75%
Rainfall -999.00 in
Snow Depth Not available.
UV 0 out of 12
Pollen 6.40 out of 12
Air Quality Not available.
Flu Activity Sporadic
SPECI KDIJ 230312Z AUTO 19007KT 3SM -VCTSRA BR FEW019 BKN028 OVC039 07/07 A2998 RMK AO2 LTG DSNT W AND NW TSE0258B06 P0004

More Conditions Fewer Conditions

Pressure 29.98 in
Visibility 3.0 miles
Clouds Few 1900 ft
Mostly Cloudy 2800 ft
Overcast 3900 ft
Dew Point 46 °F
Humidity 75%
Rainfall -999.00 in
Snow Depth Not available.
UV 0 out of 12
Pollen 6.40 out of 12
Air Quality Not available.
Flu Activity Sporadic
SPECI KDIJ 230312Z AUTO 19007KT 3SM -VCTSRA BR FEW019 BKN028 OVC039 07/07 A2998 RMK AO2 LTG DSNT W AND NW TSE0258B06 P0004

More Conditions Fewer Conditions

10-Day Weather Forecast

Almanac

Astronomy

May. 22, 2015 Rise Set
Actual Time
Civil Twilight
Nautical Twilight
Astronomical Twilight
Moon
Length of Visible Light
Length of Day
Tomorrow will be .
, % of the Moon is Illuminated

Today's Extremes

State Highs State Lows

Community

WunderPhotos

Upload Photos

1,823,375 photos uploaded!

WunderBlogs® & News

Nearby

Air Quality

  Air Quality AQ Index Pollutant
Not available.

Snow Depth

Station Depth Elevation

Earthquake Activity

City Distance Mag. Time & Date
Minimum magnitude displayed is 2.5.

Coastal Water Temperatures

Place Temperature

Stations

Nearby Weather Stations

Station Location Temp. Windchill Dew Point Humidity Wind Precip. Elev Updated Type